sensor_id;sensor_type;location;lat;lon;timestamp;P1;P2;P0
77411;PMS7003;66484;49.968;19.140;2023-02-28T00:00:08;31.75;29.25;20.50
77411;PMS7003;66484;49.968;19.140;2023-02-28T00:02:58;24.75;24.00;19.25
77411;PMS7003;66484;49.968;19.140;2023-02-28T00:05:25;29.25;25.00;19.25
77411;PMS7003;66484;49.968;19.140;2023-02-28T00:07:52;21.75;17.75;15.25
77411;PMS7003;66484;49.968;19.140;2023-02-28T00:10:23;27.75;22.00;18.25
77411;PMS7003;66484;49.968;19.140;2023-02-28T00:12:51;29.75;25.00;19.00
77411;PMS7003;66484;49.968;19.140;2023-02-28T00:15:18;34.50;25.50;21.50
77411;PMS7003;66484;49.968;19.140;2023-02-28T00:17:45;23.25;19.50;15.00
77411;PMS7003;66484;49.968;19.140;2023-02-28T00:20:11;42.50;30.50;22.50
77411;PMS7003;66484;49.968;19.140;2023-02-28T00:22:38;32.25;28.75;21.00
77411;PMS7003;66484;49.968;19.140;2023-02-28T00:25:05;24.75;19.25;14.75
77411;PMS7003;66484;49.968;19.140;2023-02-28T00:27:35;25.75;22.25;17.75
77411;PMS7003;66484;49.968;19.140;2023-02-28T00:30:02;20.00;16.25;13.50
77411;PMS7003;66484;49.968;19.140;2023-02-28T00:32:29;33.75;27.75;18.75
77411;PMS7003;66484;49.968;19.140;2023-02-28T00:34:55;23.75;22.25;16.00
77411;PMS7003;66484;49.968;19.140;2023-02-28T00:37:22;14.75;13.25;9.25
77411;PMS7003;66484;49.968;19.140;2023-02-28T00:39:48;27.50;21.50;15.75
77411;PMS7003;66484;49.968;19.140;2023-02-28T00:42:14;26.50;22.50;15.50
77411;PMS7003;66484;49.968;19.140;2023-02-28T00:44:40;19.00;18.25;15.50
77411;PMS7003;66484;49.968;19.140;2023-02-28T00:47:08;30.00;26.50;19.75
77411;PMS7003;66484;49.968;19.140;2023-02-28T00:49:34;25.25;19.50;13.50
77411;PMS7003;66484;49.968;19.140;2023-02-28T00:52:00;21.00;16.50;13.00
77411;PMS7003;66484;49.968;19.140;2023-02-28T00:54:25;29.75;21.75;15.25
77411;PMS7003;66484;49.968;19.140;2023-02-28T00:56:52;24.50;22.25;15.50
77411;PMS7003;66484;49.968;19.140;2023-02-28T00:59:18;23.00;21.00;15.00
77411;PMS7003;66484;49.968;19.140;2023-02-28T01:01:45;31.00;20.75;18.00
77411;PMS7003;66484;49.968;19.140;2023-02-28T01:04:12;30.50;26.50;20.00
77411;PMS7003;66484;49.968;19.140;2023-02-28T01:06:38;32.25;25.25;19.50
77411;PMS7003;66484;49.968;19.140;2023-02-28T01:09:05;30.00;23.50;17.00
77411;PMS7003;66484;49.968;19.140;2023-02-28T01:11:31;28.25;26.75;19.75
77411;PMS7003;66484;49.968;19.140;2023-02-28T01:13:58;13.00;12.00;6.25
77411;PMS7003;66484;49.968;19.140;2023-02-28T01:16:24;23.75;18.25;15.00
77411;PMS7003;66484;49.968;19.140;2023-02-28T01:18:50;23.00;18.50;15.50
77411;PMS7003;66484;49.968;19.140;2023-02-28T01:21:17;23.75;19.50;15.25
77411;PMS7003;66484;49.968;19.140;2023-02-28T01:23:44;16.50;15.75;13.00
77411;PMS7003;66484;49.968;19.140;2023-02-28T01:26:15;28.00;20.00;15.25
77411;PMS7003;66484;49.968;19.140;2023-02-28T01:28:45;20.75;18.25;13.00
77411;PMS7003;66484;49.968;19.140;2023-02-28T01:31:12;28.50;19.00;15.50
77411;PMS7003;66484;49.968;19.140;2023-02-28T01:33:38;24.50;21.50;18.00
77411;PMS7003;66484;49.968;19.140;2023-02-28T01:36:06;27.00;21.75;18.00
77411;PMS7003;66484;49.968;19.140;2023-02-28T01:38:34;20.75;20.50;17.50
77411;PMS7003;66484;49.968;19.140;2023-02-28T01:41:01;20.00;16.75;12.25
77411;PMS7003;66484;49.968;19.140;2023-02-28T01:43:28;22.75;17.50;15.50
77411;PMS7003;66484;49.968;19.140;2023-02-28T01:46:05;27.00;26.00;19.00
77411;PMS7003;66484;49.968;19.140;2023-02-28T01:48:32;28.75;22.50;16.25
77411;PMS7003;66484;49.968;19.140;2023-02-28T01:51:01;28.00;23.75;18.75
77411;PMS7003;66484;49.968;19.140;2023-02-28T01:53:34;22.50;22.50;17.25
77411;PMS7003;66484;49.968;19.140;2023-02-28T01:56:05;28.00;24.50;20.75
77411;PMS7003;66484;49.968;19.140;2023-02-28T01:58:32;35.50;28.75;20.75
77411;PMS7003;66484;49.968;19.140;2023-02-28T02:00:58;31.25;23.75;18.50
77411;PMS7003;66484;49.968;19.140;2023-02-28T02:03:24;24.75;24.50;16.50
77411;PMS7003;66484;49.968;19.140;2023-02-28T02:05:51;21.25;19.00;12.75
77411;PMS7003;66484;49.968;19.140;2023-02-28T02:08:21;21.75;20.50;15.25
77411;PMS7003;66484;49.968;19.140;2023-02-28T02:10:50;25.25;20.00;15.00
77411;PMS7003;66484;49.968;19.140;2023-02-28T02:18:57;32.75;25.50;18.50
77411;PMS7003;66484;49.968;19.140;2023-02-28T02:24:58;33.50;25.75;18.75
77411;PMS7003;66484;49.968;19.140;2023-02-28T02:33:23;22.50;19.00;13.50
77411;PMS7003;66484;49.968;19.140;2023-02-28T02:36:19;30.75;28.50;18.25
77411;PMS7003;66484;49.968;19.140;2023-02-28T02:38:50;29.50;24.50;16.00
77411;PMS7003;66484;49.968;19.140;2023-02-28T02:41:28;37.50;31.50;25.00
77411;PMS7003;66484;49.968;19.140;2023-02-28T02:44:07;26.25;22.00;15.50
77411;PMS7003;66484;49.968;19.140;2023-02-28T02:46:39;24.25;22.00;15.75
77411;PMS7003;66484;49.968;19.140;2023-02-28T02:49:19;26.25;24.00;18.25
77411;PMS7003;66484;49.968;19.140;2023-02-28T02:51:48;21.25;18.75;16.50
77411;PMS7003;66484;49.968;19.140;2023-02-28T02:54:19;18.50;14.50;10.00
77411;PMS7003;66484;49.968;19.140;2023-02-28T02:56:47;20.00;20.00;15.50
77411;PMS7003;66484;49.968;19.140;2023-02-28T02:59:15;24.75;20.75;16.75
77411;PMS7003;66484;49.968;19.140;2023-02-28T03:01:49;31.75;27.25;21.00
77411;PMS7003;66484;49.968;19.140;2023-02-28T03:04:18;24.25;21.25;15.25
77411;PMS7003;66484;49.968;19.140;2023-02-28T03:06:45;35.25;28.00;18.75
77411;PMS7003;66484;49.968;19.140;2023-02-28T03:09:11;34.25;29.50;20.50
77411;PMS7003;66484;49.968;19.140;2023-02-28T03:11:38;36.25;26.00;18.00
77411;PMS7003;66484;49.968;19.140;2023-02-28T03:19:33;31.25;22.00;18.25
77411;PMS7003;66484;49.968;19.140;2023-02-28T03:27:29;29.50;25.50;19.00
77411;PMS7003;66484;49.968;19.140;2023-02-28T03:30:02;14.50;9.00;3.00
77411;PMS7003;66484;49.968;19.140;2023-02-28T03:32:34;26.25;24.00;20.50
77411;PMS7003;66484;49.968;19.140;2023-02-28T03:37:48;24.75;21.25;16.00
77411;PMS7003;66484;49.968;19.140;2023-02-28T03:40:19;32.25;24.50;18.75
77411;PMS7003;66484;49.968;19.140;2023-02-28T03:42:47;27.50;23.00;20.50
77411;PMS7003;66484;49.968;19.140;2023-02-28T03:45:17;26.50;24.75;21.75
77411;PMS7003;66484;49.968;19.140;2023-02-28T03:47:50;26.75;22.75;17.00
77411;PMS7003;66484;49.968;19.140;2023-02-28T03:50:53;36.00;26.75;19.50
77411;PMS7003;66484;49.968;19.140;2023-02-28T03:53:14;34.50;30.00;19.00
77411;PMS7003;66484;49.968;19.140;2023-02-28T03:55:45;28.75;25.25;19.00
77411;PMS7003;66484;49.968;19.140;2023-02-28T04:00:43;35.50;32.50;24.75
77411;PMS7003;66484;49.968;19.140;2023-02-28T04:03:12;32.50;30.75;22.50
77411;PMS7003;66484;49.968;19.140;2023-02-28T04:05:56;57.00;45.00;31.00
77411;PMS7003;66484;49.968;19.140;2023-02-28T04:08:23;35.75;31.25;23.00
77411;PMS7003;66484;49.968;19.140;2023-02-28T04:10:51;26.25;23.00;16.50
77411;PMS7003;66484;49.968;19.140;2023-02-28T04:13:26;27.25;24.00;19.00
77411;PMS7003;66484;49.968;19.140;2023-02-28T04:15:52;31.75;24.00;17.50
77411;PMS7003;66484;49.968;19.140;2023-02-28T04:18:18;35.00;24.25;14.00
77411;PMS7003;66484;49.968;19.140;2023-02-28T04:20:44;29.00;23.50;15.50
77411;PMS7003;66484;49.968;19.140;2023-02-28T04:23:09;28.50;24.75;17.75
77411;PMS7003;66484;49.968;19.140;2023-02-28T04:25:35;23.25;20.75;15.25
77411;PMS7003;66484;49.968;19.140;2023-02-28T04:28:01;30.75;27.50;22.50
77411;PMS7003;66484;49.968;19.140;2023-02-28T04:30:27;22.50;20.75;14.50
77411;PMS7003;66484;49.968;19.140;2023-02-28T04:32:54;27.00;24.50;18.00
77411;PMS7003;66484;49.968;19.140;2023-02-28T04:35:21;29.00;25.25;17.50
77411;PMS7003;66484;49.968;19.140;2023-02-28T04:37:46;36.00;32.50;20.50
77411;PMS7003;66484;49.968;19.140;2023-02-28T04:40:12;34.75;23.50;15.75
77411;PMS7003;66484;49.968;19.140;2023-02-28T04:42:38;35.50;21.50;15.50
77411;PMS7003;66484;49.968;19.140;2023-02-28T04:45:04;42.50;36.00;25.00
77411;PMS7003;66484;49.968;19.140;2023-02-28T04:47:30;29.00;27.00;21.00
77411;PMS7003;66484;49.968;19.140;2023-02-28T04:49:57;47.00;38.00;25.50
77411;PMS7003;66484;49.968;19.140;2023-02-28T04:52:22;39.50;33.25;24.25
77411;PMS7003;66484;49.968;19.140;2023-02-28T04:54:48;35.00;31.00;25.00
77411;PMS7003;66484;49.968;19.140;2023-02-28T04:57:15;39.50;34.50;24.50
77411;PMS7003;66484;49.968;19.140;2023-02-28T04:59:41;32.00;32.00;25.50
77411;PMS7003;66484;49.968;19.140;2023-02-28T05:02:06;49.25;32.50;17.00
77411;PMS7003;66484;49.968;19.140;2023-02-28T05:04:33;48.25;35.50;22.75
77411;PMS7003;66484;49.968;19.140;2023-02-28T05:07:00;49.50;42.50;28.50
77411;PMS7003;66484;49.968;19.140;2023-02-28T05:09:27;46.75;39.50;28.25
77411;PMS7003;66484;49.968;19.140;2023-02-28T05:11:53;47.25;35.25;24.50
77411;PMS7003;66484;49.968;19.140;2023-02-28T05:14:20;33.00;32.00;24.00
77411;PMS7003;66484;49.968;19.140;2023-02-28T05:16:47;52.25;39.75;28.00
77411;PMS7003;66484;49.968;19.140;2023-02-28T05:19:13;47.00;42.25;30.50
77411;PMS7003;66484;49.968;19.140;2023-02-28T05:21:52;39.25;35.75;25.00
77411;PMS7003;66484;49.968;19.140;2023-02-28T05:24:19;48.25;38.50;23.00
77411;PMS7003;66484;49.968;19.140;2023-02-28T05:26:48;38.25;29.75;22.00
77411;PMS7003;66484;49.968;19.140;2023-02-28T05:29:16;38.25;34.00;28.50
77411;PMS7003;66484;49.968;19.140;2023-02-28T05:31:42;35.00;35.00;27.75
77411;PMS7003;66484;49.968;19.140;2023-02-28T05:34:08;33.75;33.00;25.50
77411;PMS7003;66484;49.968;19.140;2023-02-28T05:36:36;37.25;30.75;22.00
77411;PMS7003;66484;49.968;19.140;2023-02-28T05:39:05;42.00;40.25;24.75
77411;PMS7003;66484;49.968;19.140;2023-02-28T05:41:31;32.75;26.75;17.00
77411;PMS7003;66484;49.968;19.140;2023-02-28T05:43:57;20.25;13.00;6.25
77411;PMS7003;66484;49.968;19.140;2023-02-28T05:46:25;33.50;29.50;21.75
77411;PMS7003;66484;49.968;19.140;2023-02-28T05:48:51;36.00;28.25;21.50
77411;PMS7003;66484;49.968;19.140;2023-02-28T05:51:16;39.75;33.25;23.00
77411;PMS7003;66484;49.968;19.140;2023-02-28T05:53:43;48.50;35.00;26.50
77411;PMS7003;66484;49.968;19.140;2023-02-28T05:56:09;42.75;38.00;28.75
77411;PMS7003;66484;49.968;19.140;2023-02-28T05:58:35;44.25;34.25;26.00
77411;PMS7003;66484;49.968;19.140;2023-02-28T06:01:19;46.50;37.00;28.25
77411;PMS7003;66484;49.968;19.140;2023-02-28T06:03:48;23.75;21.75;17.25
77411;PMS7003;66484;49.968;19.140;2023-02-28T06:06:14;28.50;27.50;19.25
77411;PMS7003;66484;49.968;19.140;2023-02-28T06:08:40;33.75;30.75;24.25
77411;PMS7003;66484;49.968;19.140;2023-02-28T06:11:08;45.50;38.00;27.75
77411;PMS7003;66484;49.968;19.140;2023-02-28T06:13:37;38.25;36.00;25.50
77411;PMS7003;66484;49.968;19.140;2023-02-28T06:16:03;23.00;22.50;21.00
77411;PMS7003;66484;49.968;19.140;2023-02-28T06:18:29;36.25;31.75;24.50
77411;PMS7003;66484;49.968;19.140;2023-02-28T06:20:56;36.25;30.75;23.00
77411;PMS7003;66484;49.968;19.140;2023-02-28T06:23:23;57.50;50.50;32.50
77411;PMS7003;66484;49.968;19.140;2023-02-28T06:25:49;61.00;47.00;28.50
77411;PMS7003;66484;49.968;19.140;2023-02-28T06:28:15;44.00;33.25;28.00
77411;PMS7003;66484;49.968;19.140;2023-02-28T06:30:41;35.00;33.00;26.00
77411;PMS7003;66484;49.968;19.140;2023-02-28T06:33:07;40.25;32.50;21.75
77411;PMS7003;66484;49.968;19.140;2023-02-28T06:35:33;38.50;33.75;24.75
77411;PMS7003;66484;49.968;19.140;2023-02-28T06:37:59;39.25;32.75;24.00
77411;PMS7003;66484;49.968;19.140;2023-02-28T06:40:25;40.00;37.50;21.25
77411;PMS7003;66484;49.968;19.140;2023-02-28T06:42:51;35.00;32.00;24.50
77411;PMS7003;66484;49.968;19.140;2023-02-28T06:45:17;33.50;31.00;24.75
77411;PMS7003;66484;49.968;19.140;2023-02-28T06:47:43;45.75;38.00;27.75
77411;PMS7003;66484;49.968;19.140;2023-02-28T06:50:10;39.50;33.25;25.50
77411;PMS7003;66484;49.968;19.140;2023-02-28T06:52:37;37.75;32.25;22.00
77411;PMS7003;66484;49.968;19.140;2023-02-28T06:55:04;30.50;29.50;24.00
77411;PMS7003;66484;49.968;19.140;2023-02-28T06:57:31;27.25;23.50;15.75
77411;PMS7003;66484;49.968;19.140;2023-02-28T06:59:58;31.50;28.25;21.50
77411;PMS7003;66484;49.968;19.140;2023-02-28T07:02:25;38.25;28.25;20.50
77411;PMS7003;66484;49.968;19.140;2023-02-28T07:04:51;37.25;30.50;21.00
77411;PMS7003;66484;49.968;19.140;2023-02-28T07:07:17;30.25;30.25;23.50
77411;PMS7003;66484;49.968;19.140;2023-02-28T07:09:43;25.50;24.25;18.25
77411;PMS7003;66484;49.968;19.140;2023-02-28T07:12:09;37.50;34.75;22.50
77411;PMS7003;66484;49.968;19.140;2023-02-28T07:14:36;33.00;29.75;19.50
77411;PMS7003;66484;49.968;19.140;2023-02-28T07:17:02;30.75;28.00;21.00
77411;PMS7003;66484;49.968;19.140;2023-02-28T07:19:28;32.75;28.75;21.25
77411;PMS7003;66484;49.968;19.140;2023-02-28T07:21:54;26.75;19.50;12.50
77411;PMS7003;66484;49.968;19.140;2023-02-28T07:24:20;47.75;37.50;24.50
77411;PMS7003;66484;49.968;19.140;2023-02-28T07:26:47;34.75;32.00;21.75
77411;PMS7003;66484;49.968;19.140;2023-02-28T07:29:12;29.00;28.00;19.50
77411;PMS7003;66484;49.968;19.140;2023-02-28T07:31:38;8.50;6.75;3.00
77411;PMS7003;66484;49.968;19.140;2023-02-28T07:34:04;27.00;21.00;15.25
77411;PMS7003;66484;49.968;19.140;2023-02-28T07:36:30;26.50;22.25;15.50
77411;PMS7003;66484;49.968;19.140;2023-02-28T07:38:56;30.25;26.25;22.50
77411;PMS7003;66484;49.968;19.140;2023-02-28T07:41:24;26.75;24.00;20.50
77411;PMS7003;66484;49.968;19.140;2023-02-28T07:43:53;35.25;31.75;21.75
77411;PMS7003;66484;49.968;19.140;2023-02-28T07:46:20;29.75;27.75;17.50
77411;PMS7003;66484;49.968;19.140;2023-02-28T07:48:46;24.50;21.50;17.00
77411;PMS7003;66484;49.968;19.140;2023-02-28T07:51:12;34.25;28.50;19.50
77411;PMS7003;66484;49.968;19.140;2023-02-28T07:53:38;26.25;25.50;18.50
77411;PMS7003;66484;49.968;19.140;2023-02-28T07:56:05;30.00;27.75;21.75
77411;PMS7003;66484;49.968;19.140;2023-02-28T07:58:31;29.25;26.50;19.50
77411;PMS7003;66484;49.968;19.140;2023-02-28T08:00:57;34.00;30.50;21.75
77411;PMS7003;66484;49.968;19.140;2023-02-28T08:03:23;35.25;25.25;19.50
77411;PMS7003;66484;49.968;19.140;2023-02-28T08:05:49;30.50;30.00;20.25
77411;PMS7003;66484;49.968;19.140;2023-02-28T08:08:15;36.00;27.00;19.00
77411;PMS7003;66484;49.968;19.140;2023-02-28T08:10:43;14.00;14.00;14.00
77411;PMS7003;66484;49.968;19.140;2023-02-28T08:13:09;27.25;25.00;16.25
77411;PMS7003;66484;49.968;19.140;2023-02-28T08:15:35;32.75;29.50;23.25
77411;PMS7003;66484;49.968;19.140;2023-02-28T08:18:01;35.50;27.75;16.25
77411;PMS7003;66484;49.968;19.140;2023-02-28T08:20:28;24.50;20.50;15.25
77411;PMS7003;66484;49.968;19.140;2023-02-28T08:22:53;33.75;26.50;19.75
77411;PMS7003;66484;49.968;19.140;2023-02-28T08:25:20;26.75;23.50;19.25
77411;PMS7003;66484;49.968;19.140;2023-02-28T08:27:46;25.75;25.75;19.00
77411;PMS7003;66484;49.968;19.140;2023-02-28T08:30:13;33.00;26.00;19.50
77411;PMS7003;66484;49.968;19.140;2023-02-28T08:32:40;27.00;21.50;15.00
77411;PMS7003;66484;49.968;19.140;2023-02-28T08:35:06;28.25;20.25;15.25
77411;PMS7003;66484;49.968;19.140;2023-02-28T08:37:34;32.75;27.25;20.75
77411;PMS7003;66484;49.968;19.140;2023-02-28T08:40:01;42.00;28.25;22.50
77411;PMS7003;66484;49.968;19.140;2023-02-28T08:42:29;26.00;25.50;17.50
77411;PMS7003;66484;49.968;19.140;2023-02-28T08:44:55;29.50;26.50;19.00
77411;PMS7003;66484;49.968;19.140;2023-02-28T08:47:21;30.75;28.25;18.00
77411;PMS7003;66484;49.968;19.140;2023-02-28T08:49:47;24.75;23.75;19.00
77411;PMS7003;66484;49.968;19.140;2023-02-28T08:52:13;31.50;25.25;19.50
77411;PMS7003;66484;49.968;19.140;2023-02-28T08:54:39;24.50;20.50;13.75
77411;PMS7003;66484;49.968;19.140;2023-02-28T08:57:05;30.50;28.00;17.00
77411;PMS7003;66484;49.968;19.140;2023-02-28T08:59:31;25.25;22.75;16.00
77411;PMS7003;66484;49.968;19.140;2023-02-28T09:01:57;20.75;16.50;12.50
77411;PMS7003;66484;49.968;19.140;2023-02-28T09:04:23;11.00;5.00;2.00
77411;PMS7003;66484;49.968;19.140;2023-02-28T09:06:49;28.50;26.25;18.00
77411;PMS7003;66484;49.968;19.140;2023-02-28T09:09:16;26.25;24.25;19.00
77411;PMS7003;66484;49.968;19.140;2023-02-28T09:11:41;28.75;24.00;18.25
77411;PMS7003;66484;49.968;19.140;2023-02-28T09:14:07;24.00;20.25;16.75
77411;PMS7003;66484;49.968;19.140;2023-02-28T09:16:34;30.25;26.25;15.75
77411;PMS7003;66484;49.968;19.140;2023-02-28T09:19:00;24.50;22.00;16.00
77411;PMS7003;66484;49.968;19.140;2023-02-28T09:21:26;24.50;18.50;13.25
77411;PMS7003;66484;49.968;19.140;2023-02-28T09:23:53;16.75;16.75;13.00
77411;PMS7003;66484;49.968;19.140;2023-02-28T09:26:25;23.00;21.00;18.00
77411;PMS7003;66484;49.968;19.140;2023-02-28T09:28:53;19.00;19.00;15.00
77411;PMS7003;66484;49.968;19.140;2023-02-28T09:31:21;18.25;17.25;14.00
77411;PMS7003;66484;49.968;19.140;2023-02-28T09:33:52;17.00;14.75;12.00
77411;PMS7003;66484;49.968;19.140;2023-02-28T09:36:20;32.00;24.25;16.50
77411;PMS7003;66484;49.968;19.140;2023-02-28T09:38:51;22.00;21.75;16.25
77411;PMS7003;66484;49.968;19.140;2023-02-28T09:41:22;21.00;14.00;11.00
77411;PMS7003;66484;49.968;19.140;2023-02-28T09:43:50;14.00;13.00;9.00
77411;PMS7003;66484;49.968;19.140;2023-02-28T09:46:37;12.25;12.25;10.75
77411;PMS7003;66484;49.968;19.140;2023-02-28T09:49:30;18.00;15.50;12.25
77411;PMS7003;66484;49.968;19.140;2023-02-28T09:52:09;13.75;13.75;12.00
77411;PMS7003;66484;49.968;19.140;2023-02-28T09:54:38;13.75;10.50;9.00
77411;PMS7003;66484;49.968;19.140;2023-02-28T09:59:37;14.00;13.25;10.25
77411;PMS7003;66484;49.968;19.140;2023-02-28T10:05:13;15.75;13.75;8.75
77411;PMS7003;66484;49.968;19.140;2023-02-28T10:10:41;17.00;13.25;11.50
77411;PMS7003;66484;49.968;19.140;2023-02-28T10:13:23;18.50;18.50;13.25
77411;PMS7003;66484;49.968;19.140;2023-02-28T10:15:54;17.50;17.00;11.50
77411;PMS7003;66484;49.968;19.140;2023-02-28T10:18:30;31.50;23.50;15.25
77411;PMS7003;66484;49.968;19.140;2023-02-28T10:20:59;20.25;18.75;13.50
77411;PMS7003;66484;49.968;19.140;2023-02-28T10:23:28;19.50;18.50;11.50
77411;PMS7003;66484;49.968;19.140;2023-02-28T10:25:58;19.00;19.00;13.00
77411;PMS7003;66484;49.968;19.140;2023-02-28T10:28:25;21.75;21.25;17.00
77411;PMS7003;66484;49.968;19.140;2023-02-28T10:30:53;21.00;16.75;13.75
77411;PMS7003;66484;49.968;19.140;2023-02-28T10:33:40;22.50;19.00;13.25
77411;PMS7003;66484;49.968;19.140;2023-02-28T10:36:05;20.00;18.25;13.50
77411;PMS7003;66484;49.968;19.140;2023-02-28T10:38:37;17.00;16.00;11.50
77411;PMS7003;66484;49.968;19.140;2023-02-28T10:41:07;19.50;14.50;13.00
77411;PMS7003;66484;49.968;19.140;2023-02-28T10:43:34;16.75;15.50;13.00
77411;PMS7003;66484;49.968;19.140;2023-02-28T10:48:39;19.00;16.75;13.00
77411;PMS7003;66484;49.968;19.140;2023-02-28T10:51:16;26.25;20.50;17.00
77411;PMS7003;66484;49.968;19.140;2023-02-28T10:53:53;15.50;15.50;14.00
77411;PMS7003;66484;49.968;19.140;2023-02-28T10:56:21;25.75;24.25;18.00
77411;PMS7003;66484;49.968;19.140;2023-02-28T10:58:50;19.25;16.75;13.00
77411;PMS7003;66484;49.968;19.140;2023-02-28T11:01:40;17.00;17.00;14.25
77411;PMS7003;66484;49.968;19.140;2023-02-28T11:04:39;16.75;15.50;11.50
77411;PMS7003;66484;49.968;19.140;2023-02-28T11:07:20;20.75;20.75;15.75
77411;PMS7003;66484;49.968;19.140;2023-02-28T11:09:54;11.75;10.75;8.75
77411;PMS7003;66484;49.968;19.140;2023-02-28T11:15:00;20.75;16.00;11.50
77411;PMS7003;66484;49.968;19.140;2023-02-28T11:17:30;16.50;15.00;11.00
77411;PMS7003;66484;49.968;19.140;2023-02-28T11:19:59;7.50;7.50;6.75
77411;PMS7003;66484;49.968;19.140;2023-02-28T11:22:34;10.25;4.00;4.00
77411;PMS7003;66484;49.968;19.140;2023-02-28T11:25:07;14.00;10.25;8.25
77411;PMS7003;66484;49.968;19.140;2023-02-28T11:30:02;19.50;15.00;10.00
77411;PMS7003;66484;49.968;19.140;2023-02-28T11:32:31;15.00;12.75;8.75
77411;PMS7003;66484;49.968;19.140;2023-02-28T11:37:36;18.75;15.00;13.00
77411;PMS7003;66484;49.968;19.140;2023-02-28T11:40:05;22.75;21.00;13.00
77411;PMS7003;66484;49.968;19.140;2023-02-28T11:53:22;0.25;0.25;0.25
77411;PMS7003;66484;49.968;19.140;2023-02-28T12:01:13;20.00;18.00;12.00
77411;PMS7003;66484;49.968;19.140;2023-02-28T12:11:51;9.00;9.00;7.50
77411;PMS7003;66484;49.968;19.140;2023-02-28T12:19:50;14.00;14.00;10.00
77411;PMS7003;66484;49.968;19.140;2023-02-28T12:22:30;17.00;12.75;10.50
77411;PMS7003;66484;49.968;19.140;2023-02-28T12:25:40;12.25;12.25;9.75
77411;PMS7003;66484;49.968;19.140;2023-02-28T12:27:58;15.00;14.75;10.00
77411;PMS7003;66484;49.968;19.140;2023-02-28T12:30:26;12.25;11.00;10.25
77411;PMS7003;66484;49.968;19.140;2023-02-28T12:35:35;18.25;16.00;12.00
77411;PMS7003;66484;49.968;19.140;2023-02-28T12:38:12;12.50;12.50;11.00
77411;PMS7003;66484;49.968;19.140;2023-02-28T12:40:44;19.50;17.50;11.00
77411;PMS7003;66484;49.968;19.140;2023-02-28T12:43:13;16.00;13.00;10.00
77411;PMS7003;66484;49.968;19.140;2023-02-28T12:48:10;14.25;13.25;11.50
77411;PMS7003;66484;49.968;19.140;2023-02-28T12:50:40;13.00;10.00;7.00
77411;PMS7003;66484;49.968;19.140;2023-02-28T12:53:08;13.75;10.75;9.00
77411;PMS7003;66484;49.968;19.140;2023-02-28T12:56:04;8.75;8.50;7.00
77411;PMS7003;66484;49.968;19.140;2023-02-28T12:58:42;18.50;15.00;11.50
77411;PMS7003;66484;49.968;19.140;2023-02-28T13:01:21;17.25;16.25;13.00
77411;PMS7003;66484;49.968;19.140;2023-02-28T13:09:17;9.75;6.50;4.00
77411;PMS7003;66484;49.968;19.140;2023-02-28T13:11:57;17.00;15.00;11.00
77411;PMS7003;66484;49.968;19.140;2023-02-28T13:14:25;10.50;10.00;7.00
77411;PMS7003;66484;49.968;19.140;2023-02-28T13:19:37;8.00;7.25;5.50
77411;PMS7003;66484;49.968;19.140;2023-02-28T13:22:17;13.50;10.00;8.25
77411;PMS7003;66484;49.968;19.140;2023-02-28T13:27:56;2.50;0.00;0.00
77411;PMS7003;66484;49.968;19.140;2023-02-28T13:36:22;16.00;13.25;8.50
77411;PMS7003;66484;49.968;19.140;2023-02-28T13:38:52;11.00;11.00;9.50
77411;PMS7003;66484;49.968;19.140;2023-02-28T13:44:08;12.25;12.25;9.25
77411;PMS7003;66484;49.968;19.140;2023-02-28T13:47:21;8.25;8.25;7.25
77411;PMS7003;66484;49.968;19.140;2023-02-28T14:05:19;14.00;12.00;10.00
77411;PMS7003;66484;49.968;19.140;2023-02-28T14:07:52;13.25;13.25;10.00
77411;PMS7003;66484;49.968;19.140;2023-02-28T14:10:33;12.50;11.00;10.00
77411;PMS7003;66484;49.968;19.140;2023-02-28T14:13:14;13.00;13.00;11.25
77411;PMS7003;66484;49.968;19.140;2023-02-28T14:16:13;14.75;13.50;9.50
77411;PMS7003;66484;49.968;19.140;2023-02-28T14:18:41;17.75;15.75;12.75
77411;PMS7003;66484;49.968;19.140;2023-02-28T14:21:20;13.00;13.00;8.00
77411;PMS7003;66484;49.968;19.140;2023-02-28T14:29:14;20.75;16.25;13.50
77411;PMS7003;66484;49.968;19.140;2023-02-28T14:31:43;15.25;12.75;10.00
77411;PMS7003;66484;49.968;19.140;2023-02-28T14:37:13;14.75;13.50;10.50
77411;PMS7003;66484;49.968;19.140;2023-02-28T14:39:42;13.75;12.75;6.50
77411;PMS7003;66484;49.968;19.140;2023-02-28T14:42:25;20.00;18.25;11.00
77411;PMS7003;66484;49.968;19.140;2023-02-28T14:44:58;18.75;11.50;10.50
77411;PMS7003;66484;49.968;19.140;2023-02-28T14:47:28;22.50;20.25;15.50
77411;PMS7003;66484;49.968;19.140;2023-02-28T14:49:56;17.25;13.50;10.00
77411;PMS7003;66484;49.968;19.140;2023-02-28T14:52:25;15.00;10.50;7.00
77411;PMS7003;66484;49.968;19.140;2023-02-28T14:54:55;19.50;12.50;9.50
77411;PMS7003;66484;49.968;19.140;2023-02-28T14:57:44;16.00;10.50;9.50
77411;PMS7003;66484;49.968;19.140;2023-02-28T15:00:29;21.00;17.50;13.25
77411;PMS7003;66484;49.968;19.140;2023-02-28T15:02:58;13.00;13.00;10.00
77411;PMS7003;66484;49.968;19.140;2023-02-28T15:05:29;16.50;14.50;10.50
77411;PMS7003;66484;49.968;19.140;2023-02-28T15:08:14;17.00;15.50;9.50
77411;PMS7003;66484;49.968;19.140;2023-02-28T15:10:51;13.50;10.75;8.00
77411;PMS7003;66484;49.968;19.140;2023-02-28T15:13:20;21.25;17.00;14.25
77411;PMS7003;66484;49.968;19.140;2023-02-28T15:15:59;19.50;16.50;13.00
77411;PMS7003;66484;49.968;19.140;2023-02-28T15:18:46;16.50;16.50;8.00
77411;PMS7003;66484;49.968;19.140;2023-02-28T15:21:15;18.25;16.50;10.00
77411;PMS7003;66484;49.968;19.140;2023-02-28T15:23:45;12.00;10.50;8.00
77411;PMS7003;66484;49.968;19.140;2023-02-28T15:26:15;10.75;8.50;6.75
77411;PMS7003;66484;49.968;19.140;2023-02-28T15:28:42;14.00;6.50;5.00
77411;PMS7003;66484;49.968;19.140;2023-02-28T15:31:19;14.00;14.00;13.00
77411;PMS7003;66484;49.968;19.140;2023-02-28T15:33:54;16.25;11.50;8.00
77411;PMS7003;66484;49.968;19.140;2023-02-28T15:36:24;19.50;14.50;12.00
77411;PMS7003;66484;49.968;19.140;2023-02-28T15:38:55;13.50;12.00;9.50
77411;PMS7003;66484;49.968;19.140;2023-02-28T15:46:59;17.50;13.50;8.50
77411;PMS7003;66484;49.968;19.140;2023-02-28T15:49:28;20.25;19.25;13.50
77411;PMS7003;66484;49.968;19.140;2023-02-28T15:51:58;11.25;10.50;7.75
77411;PMS7003;66484;49.968;19.140;2023-02-28T15:54:32;12.25;11.00;6.75
77411;PMS7003;66484;49.968;19.140;2023-02-28T15:57:04;17.50;14.75;11.25
77411;PMS7003;66484;49.968;19.140;2023-02-28T15:59:34;20.00;18.00;14.25
77411;PMS7003;66484;49.968;19.140;2023-02-28T16:02:02;12.50;11.00;9.25
77411;PMS7003;66484;49.968;19.140;2023-02-28T16:04:29;16.50;15.50;13.00